createdAt,value
2019-04-04T00:02:05.104Z,30.50
2019-04-04T00:04:38.522Z,30.30
2019-04-04T00:07:12.503Z,30.00
2019-04-04T00:09:46.724Z,29.90
2019-04-04T00:12:20.453Z,30.00
2019-04-04T00:14:54.127Z,30.00
2019-04-04T00:17:27.488Z,29.70
2019-04-04T00:20:01.479Z,29.50
2019-04-04T00:22:35.827Z,29.40
2019-04-04T00:25:10.389Z,29.10
2019-04-04T00:27:43.942Z,29.10
2019-04-04T00:30:18.566Z,29.60
2019-04-04T00:32:52.783Z,30.10
2019-04-04T00:35:27.023Z,30.10
2019-04-04T00:38:00.234Z,30.00
2019-04-04T00:40:33.553Z,30.10
2019-04-04T00:43:06.275Z,30.10
2019-04-04T00:45:40.217Z,30.10
2019-04-04T00:48:13.715Z,30.20
2019-04-04T00:50:47.448Z,30.20
2019-04-04T00:53:20.920Z,30.10
2019-04-04T00:55:53.665Z,30.30
2019-04-04T00:58:26.999Z,30.50
2019-04-04T01:01:00.014Z,30.70
2019-04-04T01:03:33.823Z,30.80
2019-04-04T01:06:07.016Z,31.00
2019-04-04T01:08:40.478Z,31.10
2019-04-04T01:11:13.703Z,31.10
2019-04-04T01:13:46.970Z,31.00
2019-04-04T01:16:20.307Z,31.00
2019-04-04T01:18:54.590Z,31.10
2019-04-04T01:21:27.908Z,31.10
2019-04-04T01:24:01.683Z,31.10
2019-04-04T01:26:35.819Z,31.20
2019-04-04T01:29:11.041Z,31.00
2019-04-04T01:31:46.028Z,30.70
2019-04-04T01:34:21.434Z,30.70
2019-04-04T01:36:56.557Z,30.60
2019-04-04T01:39:31.217Z,30.50
2019-04-04T01:42:07.278Z,30.50
2019-04-04T01:44:42.288Z,30.40
2019-04-04T01:47:17.026Z,30.30
2019-04-04T01:49:52.435Z,30.40
2019-04-04T01:52:28.661Z,30.30
2019-04-04T01:55:03.405Z,30.40
2019-04-04T01:57:38.925Z,30.50
2019-04-04T02:00:15.135Z,31.10
2019-04-04T02:02:51.903Z,30.90
2019-04-04T02:05:26.823Z,31.30
2019-04-04T02:08:00.995Z,31.40
2019-04-04T02:10:35.725Z,31.20
2019-04-04T02:13:10.431Z,31.00
2019-04-04T02:15:45.326Z,31.00
2019-04-04T02:18:19.350Z,31.30
2019-04-04T02:20:53.166Z,31.30
2019-04-04T02:23:27.213Z,31.70
2019-04-04T02:26:04.849Z,31.90
2019-04-04T02:28:37.977Z,31.80
2019-04-04T02:31:12.151Z,31.60
2019-04-04T02:33:45.559Z,31.90
2019-04-04T02:36:19.339Z,32.20
2019-04-04T02:39:09.416Z,32.10
2019-04-04T02:41:47.527Z,32.30
2019-04-04T02:44:18.981Z,32.30
2019-04-04T02:46:52.195Z,32.10
2019-04-04T02:49:29.214Z,31.70
2019-04-04T02:52:01.314Z,32.00
2019-04-04T02:54:35.299Z,32.20
2019-04-04T02:57:09.626Z,32.40
2019-04-04T02:59:42.968Z,32.50
2019-04-04T03:02:17.050Z,32.70
2019-04-04T03:04:50.504Z,32.80
2019-04-04T03:07:24.637Z,33.10
2019-04-04T03:09:58.292Z,33.10
2019-04-04T03:12:32.146Z,33.30
2019-04-04T03:15:06.304Z,32.70
2019-04-04T03:17:41.629Z,32.20
2019-04-04T03:20:17.314Z,32.00
2019-04-04T03:22:50.412Z,32.20
2019-04-04T03:25:23.705Z,32.70
2019-04-04T03:27:58.244Z,32.80
2019-04-04T03:30:33.630Z,32.80
2019-04-04T03:33:07.925Z,32.60
2019-04-04T03:35:42.331Z,32.40
2019-04-04T03:38:15.627Z,32.40
2019-04-04T03:40:48.441Z,32.10
2019-04-04T03:43:22.223Z,31.90
2019-04-04T03:46:00.343Z,31.60
2019-04-04T03:48:31.923Z,31.80
2019-04-04T03:51:05.527Z,31.40
2019-04-04T03:53:41.806Z,31.30
2019-04-04T03:56:16.102Z,31.00
2019-04-04T03:58:50.211Z,30.80
2019-04-04T04:01:24.807Z,30.80
2019-04-04T04:03:58.410Z,30.70
2019-04-04T04:06:32.558Z,30.50
2019-04-04T04:09:07.385Z,30.50
2019-04-04T04:11:41.573Z,30.60
2019-04-04T04:14:15.547Z,30.70
2019-04-04T04:16:49.598Z,31.30
2019-04-04T04:19:24.435Z,31.30
2019-04-04T04:21:59.098Z,31.20
2019-04-04T04:24:32.901Z,30.90
2019-04-04T04:27:06.564Z,30.70
2019-04-04T04:29:39.854Z,30.60
2019-04-04T04:32:13.187Z,30.50
2019-04-04T04:34:46.956Z,30.60
2019-04-04T04:37:21.113Z,30.20
2019-04-04T04:39:55.281Z,30.20
2019-04-04T04:42:29.533Z,31.30
2019-04-04T04:45:03.650Z,30.80
2019-04-04T04:47:37.426Z,31.10
2019-04-04T04:50:11.434Z,31.00
2019-04-04T04:52:46.746Z,30.80
2019-04-04T04:55:20.304Z,31.00
2019-04-04T04:57:56.270Z,30.90
2019-04-04T05:00:30.175Z,30.60
2019-04-04T05:03:03.875Z,30.90
2019-04-04T05:05:38.065Z,31.30
2019-04-04T05:08:11.294Z,31.30
2019-04-04T05:10:45.916Z,31.40
2019-04-04T05:13:20.707Z,31.50
2019-04-04T05:15:55.117Z,31.70
2019-04-04T05:18:49.419Z,31.50
2019-04-04T05:21:25.572Z,31.40
2019-04-04T05:23:58.508Z,31.70
2019-04-04T05:26:34.234Z,31.90
2019-04-04T05:29:07.621Z,31.80
2019-04-04T05:31:41.349Z,32.10
2019-04-04T05:34:15.667Z,32.00
2019-04-04T05:36:49.749Z,31.90
2019-04-04T05:39:23.453Z,32.10
2019-04-04T05:41:58.090Z,32.10
2019-04-04T05:44:34.309Z,32.00
2019-04-04T05:47:07.771Z,32.00
2019-04-04T05:49:42.494Z,32.00
2019-04-04T05:52:16.325Z,32.70
2019-04-04T05:54:49.984Z,32.70
2019-04-04T05:57:23.257Z,32.70
2019-04-04T05:59:57.201Z,32.80
2019-04-04T06:02:30.805Z,32.70
2019-04-04T06:05:04.621Z,32.70
2019-04-04T06:07:37.448Z,33.00
2019-04-04T06:10:12.212Z,32.80
2019-04-04T06:12:45.735Z,32.50
2019-04-04T06:15:18.947Z,32.30
2019-04-04T06:17:52.945Z,32.10
2019-04-04T06:20:27.073Z,31.90
2019-04-04T06:23:01.240Z,31.80
2019-04-04T06:25:35.913Z,32.00
2019-04-04T06:28:12.016Z,32.10
2019-04-04T06:30:45.497Z,32.30
2019-04-04T06:33:19.228Z,32.20
2019-04-04T06:35:52.528Z,32.40
2019-04-04T06:38:26.774Z,32.30
2019-04-04T06:41:00.868Z,32.10
2019-04-04T06:43:35.893Z,32.40
2019-04-04T06:46:09.754Z,32.10
2019-04-04T06:48:43.940Z,31.90
2019-04-04T06:51:17.559Z,31.80
2019-04-04T06:53:53.699Z,32.00
2019-04-04T06:56:26.781Z,32.50
2019-04-04T06:59:00.573Z,31.60
2019-04-04T07:01:34.302Z,31.10
2019-04-04T07:04:07.910Z,31.10
2019-04-04T07:06:42.488Z,31.10
2019-04-04T07:09:18.990Z,30.80
2019-04-04T07:11:52.500Z,30.80
2019-04-04T07:14:30.025Z,30.30
2019-04-04T07:17:01.864Z,30.70
2019-04-04T07:19:34.472Z,30.80
2019-04-04T07:22:08.099Z,31.10
2019-04-04T07:24:41.057Z,31.10
2019-04-04T07:27:16.200Z,30.90
2019-04-04T07:29:49.861Z,30.70
2019-04-04T07:32:22.414Z,31.00
2019-04-04T07:34:56.052Z,31.00
2019-04-04T07:37:30.797Z,31.20
2019-04-04T07:40:04.534Z,30.90
2019-04-04T07:42:40.050Z,30.30
2019-04-04T07:45:14.222Z,30.70
2019-04-04T07:47:47.482Z,30.80
2019-04-04T07:50:20.809Z,30.80
2019-04-04T07:52:52.803Z,30.60
2019-04-04T07:55:24.837Z,30.80
2019-04-04T07:57:58.296Z,30.20
2019-04-04T08:00:32.422Z,30.20
2019-04-04T08:03:05.663Z,30.40
2019-04-04T08:05:39.458Z,30.40
2019-04-04T08:08:12.308Z,30.20
2019-04-04T08:10:45.664Z,30.00
2019-04-04T08:13:17.985Z,30.20
2019-04-04T08:15:51.754Z,30.00
2019-04-04T08:18:24.230Z,29.70
2019-04-04T08:20:57.599Z,29.70
2019-04-04T08:23:30.349Z,29.30
2019-04-04T08:26:03.230Z,29.70
2019-04-04T08:28:36.868Z,29.30
2019-04-04T08:31:10.982Z,30.00
2019-04-04T08:33:44.679Z,29.90
2019-04-04T08:36:18.663Z,29.70
2019-04-04T08:38:52.701Z,29.50
2019-04-04T08:41:26.384Z,29.50
2019-04-04T08:44:00.591Z,29.60
2019-04-04T08:46:33.733Z,29.40
2019-04-04T08:49:06.989Z,29.40
2019-04-04T08:51:41.118Z,29.40
2019-04-04T08:54:15.306Z,29.70
2019-04-04T08:56:49.353Z,29.80
2019-04-04T08:59:23.561Z,29.40
2019-04-04T09:01:57.451Z,29.50
2019-04-04T09:04:31.560Z,29.20
2019-04-04T09:07:05.187Z,28.90
2019-04-04T09:09:39.389Z,29.30
2019-04-04T09:12:13.183Z,29.20
2019-04-04T09:14:46.814Z,29.30
2019-04-04T09:17:20.446Z,29.50
2019-04-04T09:19:54.530Z,29.50
2019-04-04T09:22:27.868Z,29.20
2019-04-04T09:25:01.567Z,28.90
2019-04-04T09:27:36.047Z,29.20
2019-04-04T09:30:10.156Z,29.00
2019-04-04T09:32:44.278Z,29.30
2019-04-04T09:35:18.698Z,29.60
2019-04-04T09:37:52.683Z,29.20
2019-04-04T09:40:26.390Z,29.30
2019-04-04T09:43:00.126Z,29.30
2019-04-04T09:45:35.522Z,29.50
2019-04-04T09:48:09.870Z,29.50
2019-04-04T09:50:48.886Z,29.50
2019-04-04T09:53:22.513Z,29.50
2019-04-04T09:55:55.289Z,29.30
2019-04-04T09:58:28.477Z,29.00
2019-04-04T10:01:02.194Z,29.00
2019-04-04T10:03:36.305Z,28.80
2019-04-04T10:06:10.519Z,28.80
2019-04-04T10:08:43.612Z,28.50
2019-04-04T10:11:17.607Z,28.80
2019-04-04T10:13:50.078Z,29.00
2019-04-04T10:16:23.032Z,28.90
2019-04-04T10:18:57.171Z,28.90
2019-04-04T10:21:33.432Z,28.70
2019-04-04T10:24:09.438Z,28.60
2019-04-04T10:26:41.861Z,28.50
2019-04-04T10:29:13.823Z,28.60
2019-04-04T10:31:46.772Z,27.90
2019-04-04T10:34:18.781Z,28.00
2019-04-04T10:36:51.132Z,27.90
2019-04-04T10:39:29.415Z,28.00
2019-04-04T10:41:58.758Z,27.50
2019-04-04T10:44:30.860Z,27.70
2019-04-04T10:47:04.638Z,27.60
2019-04-04T10:49:37.659Z,27.20
2019-04-04T10:52:10.603Z,27.20
2019-04-04T10:54:42.991Z,27.20
2019-04-04T10:57:16.751Z,27.00
2019-04-04T10:59:50.190Z,26.60
2019-04-04T11:02:23.514Z,26.50
2019-04-04T11:04:55.965Z,26.50
2019-04-04T11:07:29.214Z,26.90
2019-04-04T11:10:01.653Z,26.50
2019-04-04T11:12:34.566Z,26.60
2019-04-04T11:15:07.299Z,26.20
2019-04-04T11:17:40.083Z,26.20
2019-04-04T11:20:12.914Z,26.10
2019-04-04T11:22:45.436Z,26.10
2019-04-04T11:25:17.474Z,26.40
2019-04-04T11:27:50.635Z,25.80
2019-04-04T11:30:23.891Z,26.40
2019-04-04T11:32:56.755Z,25.30
2019-04-04T11:35:29.657Z,25.10
2019-04-04T11:38:02.546Z,25.20
2019-04-04T11:40:35.483Z,25.90
2019-04-04T11:43:07.801Z,25.70
2019-04-04T11:45:40.742Z,24.30
2019-04-04T11:48:14.117Z,24.20
2019-04-04T11:50:46.969Z,24.30
2019-04-04T11:53:20.734Z,24.10
2019-04-04T11:55:54.160Z,24.60
2019-04-04T11:58:28.826Z,24.40
2019-04-04T12:01:02.820Z,23.60
2019-04-04T12:03:34.769Z,23.50
2019-04-04T12:06:07.591Z,23.00
2019-04-04T12:08:40.453Z,23.40
2019-04-04T12:11:13.876Z,22.70
2019-04-04T12:13:46.373Z,22.90
2019-04-04T12:16:19.795Z,22.00
2019-04-04T12:18:52.298Z,22.10
2019-04-04T12:21:25.613Z,22.40
2019-04-04T12:23:59.070Z,23.20
2019-04-04T12:26:31.350Z,23.40
2019-04-04T12:29:03.781Z,23.20
2019-04-04T12:31:36.645Z,23.00
2019-04-04T12:34:09.062Z,22.30
2019-04-04T12:36:42.075Z,22.10
2019-04-04T12:39:14.924Z,21.80
2019-04-04T12:41:47.873Z,22.20
2019-04-04T12:44:21.267Z,22.40
2019-04-04T12:46:53.788Z,22.40
2019-04-04T12:49:26.192Z,22.60
2019-04-04T12:51:59.205Z,22.60
2019-04-04T12:54:32.455Z,22.40
2019-04-04T12:57:04.944Z,22.30
2019-04-04T12:59:38.295Z,22.00
2019-04-04T13:02:11.630Z,22.20
2019-04-04T13:04:45.345Z,22.40
2019-04-04T13:07:17.730Z,21.90
2019-04-04T13:09:50.569Z,22.40
2019-04-04T13:12:23.819Z,22.60
2019-04-04T13:14:56.130Z,22.70
2019-04-04T13:17:29.042Z,22.70
2019-04-04T13:20:01.935Z,23.00
2019-04-04T13:22:35.563Z,23.00
2019-04-04T13:25:09.413Z,23.00
2019-04-04T13:27:41.807Z,23.00
2019-04-04T13:30:15.081Z,22.10
2019-04-04T13:32:48.542Z,21.70
2019-04-04T13:35:22.353Z,21.40
2019-04-04T13:37:54.748Z,21.20
2019-04-04T13:40:27.825Z,21.60
2019-04-04T13:42:59.805Z,21.00
2019-04-04T13:45:32.148Z,21.40
2019-04-04T13:48:05.292Z,21.50
2019-04-04T13:50:38.451Z,21.30
2019-04-04T13:53:12.538Z,21.70
2019-04-04T13:55:45.700Z,22.00
2019-04-04T13:58:21.888Z,22.20
2019-04-04T14:00:53.299Z,22.30
2019-04-04T14:03:27.331Z,21.60
2019-04-04T14:06:01.947Z,21.60
2019-04-04T14:08:39.252Z,21.40
2019-04-04T14:11:11.613Z,21.80
2019-04-04T14:13:44.405Z,21.90
2019-04-04T14:16:18.335Z,21.90
2019-04-04T14:18:51.906Z,21.80
2019-04-04T14:21:25.487Z,22.10
2019-04-04T14:24:12.087Z,22.40
2019-04-04T14:26:34.761Z,22.20
2019-04-04T14:29:08.777Z,22.80
2019-04-04T14:31:42.879Z,22.10
2019-04-04T14:34:16.490Z,21.70
2019-04-04T14:36:50.476Z,21.10
2019-04-04T14:39:24.507Z,21.20
2019-04-04T14:41:57.927Z,21.50
2019-04-04T14:44:31.917Z,21.20
2019-04-04T14:47:05.519Z,21.10
2019-04-04T14:49:39.692Z,21.00
2019-04-04T14:52:13.096Z,21.00
2019-04-04T14:54:47.019Z,21.10
2019-04-04T14:57:20.287Z,21.40
2019-04-04T14:59:53.662Z,21.50
2019-04-04T15:02:26.905Z,21.60
2019-04-04T15:05:00.670Z,21.20
2019-04-04T15:07:33.959Z,21.60
2019-04-04T15:10:08.684Z,21.60
2019-04-04T15:12:42.390Z,21.90
2019-04-04T15:15:16.610Z,21.90
2019-04-04T15:17:49.900Z,21.90
2019-04-04T15:20:24.227Z,21.90
2019-04-04T15:22:57.880Z,21.80
2019-04-04T15:25:31.390Z,21.80
2019-04-04T15:28:05.012Z,22.20
2019-04-04T15:30:38.211Z,22.30
2019-04-04T15:33:12.528Z,22.00
2019-04-04T15:35:45.786Z,21.90
2019-04-04T15:38:18.691Z,22.00
2019-04-04T15:40:51.943Z,22.10
2019-04-04T15:43:25.101Z,21.90
2019-04-04T15:45:57.579Z,21.70
2019-04-04T15:48:30.310Z,22.20
2019-04-04T15:51:04.241Z,22.00
2019-04-04T15:53:37.970Z,22.20
2019-04-04T15:56:12.150Z,22.20
2019-04-04T15:58:46.381Z,22.00
2019-04-04T16:01:20.418Z,21.70
2019-04-04T16:03:54.354Z,21.70
2019-04-04T16:06:28.550Z,21.40
2019-04-04T16:09:02.647Z,21.10
2019-04-04T16:11:48.520Z,20.90
2019-04-04T16:14:11.630Z,20.70
2019-04-04T16:16:45.806Z,20.70
2019-04-04T16:19:19.487Z,20.70
2019-04-04T16:21:53.605Z,20.50
2019-04-04T16:24:27.638Z,20.70
2019-04-04T16:27:01.337Z,20.70
2019-04-04T16:29:35.360Z,20.60
2019-04-04T16:32:08.521Z,20.80
2019-04-04T16:34:42.853Z,20.90
2019-04-04T16:37:16.419Z,20.80
2019-04-04T16:39:50.580Z,21.00
2019-04-04T16:42:24.204Z,21.00
2019-04-04T16:44:57.992Z,21.40
2019-04-04T16:47:32.121Z,21.40
2019-04-04T16:50:06.008Z,21.80
2019-04-04T16:52:39.992Z,22.20
2019-04-04T16:55:13.393Z,22.20
2019-04-04T16:57:47.066Z,22.60
2019-04-04T17:00:23.161Z,22.40
2019-04-04T17:02:55.965Z,22.70
2019-04-04T17:05:30.045Z,22.60
2019-04-04T17:08:04.201Z,22.40
2019-04-04T17:10:38.109Z,23.30
2019-04-04T17:13:11.380Z,23.10
2019-04-04T17:15:46.131Z,23.00
2019-04-04T17:18:20.211Z,23.20
2019-04-04T17:20:54.654Z,23.20
2019-04-04T17:23:28.777Z,23.20
2019-04-04T17:26:02.911Z,23.80
2019-04-04T17:28:36.693Z,23.20
2019-04-04T17:31:10.304Z,23.20
2019-04-04T17:33:44.637Z,23.20
2019-04-04T17:36:21.289Z,23.10
2019-04-04T17:38:55.046Z,23.30
2019-04-04T17:41:29.213Z,23.40
2019-04-04T17:44:03.422Z,23.50
2019-04-04T17:46:37.040Z,23.50
2019-04-04T17:49:10.594Z,23.40
2019-04-04T17:51:44.715Z,23.60
2019-04-04T17:54:17.562Z,23.60
2019-04-04T17:56:50.441Z,23.80
2019-04-04T17:59:22.886Z,23.70
2019-04-04T18:01:55.778Z,23.90
2019-04-04T18:04:28.683Z,23.90
2019-04-04T18:07:01.614Z,24.00
2019-04-04T18:09:34.441Z,24.20
2019-04-04T18:12:06.861Z,24.20
2019-04-04T18:14:39.638Z,24.20
2019-04-04T18:17:12.144Z,24.30
2019-04-04T18:19:44.529Z,24.20
2019-04-04T18:22:20.645Z,24.30
2019-04-04T18:24:51.766Z,24.40
2019-04-04T18:27:23.782Z,24.50
2019-04-04T18:29:56.244Z,24.80
2019-04-04T18:32:28.213Z,24.70
2019-04-04T18:35:01.366Z,24.90
2019-04-04T18:37:35.552Z,25.30
2019-04-04T18:40:09.192Z,24.70
2019-04-04T18:42:52.720Z,25.00
2019-04-04T18:45:16.015Z,25.00
2019-04-04T18:47:49.468Z,24.80
2019-04-04T18:50:22.022Z,24.80
2019-04-04T18:52:56.084Z,25.00
2019-04-04T18:55:30.319Z,25.00
2019-04-04T18:58:05.017Z,25.10
2019-04-04T19:00:37.628Z,25.00
2019-04-04T19:03:11.020Z,25.00
2019-04-04T19:05:43.881Z,25.00
2019-04-04T19:08:16.328Z,25.10
2019-04-04T19:10:49.374Z,25.00
2019-04-04T19:13:21.678Z,25.00
2019-04-04T19:15:54.520Z,25.00
2019-04-04T19:18:27.719Z,25.00
2019-04-04T19:21:00.161Z,25.10
2019-04-04T19:23:33.096Z,25.40
2019-04-04T19:26:06.205Z,25.30
2019-04-04T19:28:39.438Z,25.30
2019-04-04T19:31:12.750Z,25.10
2019-04-04T19:33:46.001Z,25.20
2019-04-04T19:36:18.005Z,25.20
2019-04-04T19:38:51.289Z,25.10
2019-04-04T19:41:23.753Z,25.10
2019-04-04T19:43:56.655Z,25.10
2019-04-04T19:46:36.899Z,25.30
2019-04-04T19:49:03.937Z,25.40
2019-04-04T19:51:35.878Z,25.50
2019-04-04T19:54:07.851Z,25.50
2019-04-04T19:56:39.915Z,25.50
2019-04-04T19:59:11.917Z,25.60
2019-04-04T20:01:44.276Z,25.70
2019-04-04T20:04:16.186Z,25.70
2019-04-04T20:06:49.251Z,25.80
2019-04-04T20:09:22.137Z,25.90
2019-04-04T20:11:55.049Z,26.60
2019-04-04T20:14:29.100Z,26.00
2019-04-04T20:17:01.721Z,26.20
2019-04-04T20:19:34.597Z,26.40
2019-04-04T20:22:08.434Z,26.30
2019-04-04T20:24:40.843Z,26.50
2019-04-04T20:27:14.446Z,26.50
2019-04-04T20:29:47.328Z,26.50
2019-04-04T20:32:19.818Z,26.70
2019-04-04T20:34:52.114Z,26.50
2019-04-04T20:37:24.588Z,26.50
2019-04-04T20:39:57.482Z,26.50
2019-04-04T20:42:29.792Z,26.50
2019-04-04T20:45:02.607Z,26.50
2019-04-04T20:47:35.433Z,26.60
2019-04-04T20:50:08.013Z,26.50
2019-04-04T20:52:40.411Z,26.40
2019-04-04T20:55:12.970Z,26.30
2019-04-04T20:57:46.358Z,26.40
2019-04-04T21:00:22.017Z,26.40
2019-04-04T21:02:56.003Z,26.40
2019-04-04T21:05:29.391Z,26.40
2019-04-04T21:08:02.811Z,26.40
2019-04-04T21:10:36.410Z,26.30
2019-04-04T21:13:09.991Z,26.30
2019-04-04T21:15:44.167Z,26.40
2019-04-04T21:18:18.262Z,26.40
2019-04-04T21:20:51.752Z,26.30
2019-04-04T21:23:25.329Z,26.30
2019-04-04T21:25:58.631Z,26.30
2019-04-04T21:28:32.325Z,26.40
2019-04-04T21:31:05.545Z,26.20
2019-04-04T21:33:39.498Z,26.20
2019-04-04T21:36:13.449Z,26.00
2019-04-04T21:38:47.309Z,25.90
2019-04-04T21:41:21.234Z,25.80
2019-04-04T21:44:07.749Z,25.90
2019-04-04T21:46:30.673Z,25.70
2019-04-04T21:49:04.114Z,26.00
2019-04-04T21:51:38.211Z,26.20
2019-04-04T21:54:12.299Z,26.30
2019-04-04T21:56:46.219Z,26.30
2019-04-04T21:59:19.847Z,26.30
2019-04-04T22:01:53.364Z,26.50
2019-04-04T22:04:26.668Z,26.40
2019-04-04T22:07:00.138Z,26.40
2019-04-04T22:09:34.555Z,26.50
2019-04-04T22:12:08.592Z,26.40
2019-04-04T22:14:42.196Z,26.40
2019-04-04T22:17:16.212Z,26.50
2019-04-04T22:19:50.439Z,26.50
2019-04-04T22:22:24.709Z,26.40
2019-04-04T22:24:59.153Z,26.40
2019-04-04T22:27:32.780Z,26.50
2019-04-04T22:30:07.023Z,26.30
2019-04-04T22:32:40.993Z,26.70
2019-04-04T22:35:14.373Z,26.60
2019-04-04T22:37:47.439Z,27.10
2019-04-04T22:40:20.560Z,27.00
2019-04-04T22:42:54.061Z,27.10
2019-04-04T22:45:28.105Z,27.20
2019-04-04T22:48:02.120Z,27.40
2019-04-04T22:50:35.900Z,27.30
2019-04-04T22:53:09.491Z,27.30
2019-04-04T22:55:43.336Z,27.30
2019-04-04T22:58:27.616Z,27.20
2019-04-04T23:00:52.424Z,27.10
2019-04-04T23:03:27.212Z,27.10
2019-04-04T23:06:00.881Z,27.10
2019-04-04T23:08:34.383Z,27.20
2019-04-04T23:11:08.512Z,27.40
2019-04-04T23:13:42.436Z,27.50
2019-04-04T23:16:16.162Z,27.60
2019-04-04T23:18:50.184Z,27.50
2019-04-04T23:21:23.224Z,27.60
2019-04-04T23:23:57.327Z,27.60
2019-04-04T23:26:31.112Z,27.50
2019-04-04T23:29:04.680Z,27.70
2019-04-04T23:31:38.957Z,27.80
2019-04-04T23:34:12.604Z,27.80
2019-04-04T23:36:46.191Z,27.60
2019-04-04T23:39:19.944Z,27.50
2019-04-04T23:41:53.969Z,27.70
2019-04-04T23:44:28.002Z,27.70
2019-04-04T23:47:01.808Z,27.60
2019-04-04T23:49:35.363Z,28.00
2019-04-04T23:52:09.513Z,27.90
2019-04-04T23:54:43.629Z,28.40
2019-04-04T23:57:17.871Z,28.20
2019-04-04T23:59:51.754Z,28.60
